createdAt,value
2019-01-06T00:05:16.845Z,3.33
2019-01-06T00:10:57.325Z,3.20
2019-01-06T00:16:51.653Z,2.83
2019-01-06T00:22:34.407Z,3.63
2019-01-06T00:28:19.919Z,3.50
2019-01-06T00:34:00.837Z,3.30
2019-01-06T00:39:49.389Z,3.33
2019-01-06T00:45:30.586Z,3.33
2019-01-06T00:51:31.175Z,4.10
2019-01-06T00:57:28.901Z,4.47
2019-01-06T01:03:23.387Z,4.40
2019-01-06T01:09:00.599Z,3.30
2019-01-06T01:14:40.742Z,3.73
2019-01-06T01:20:19.403Z,4.07
2019-01-06T01:26:00.235Z,4.40
2019-01-06T01:31:40.939Z,4.43
2019-01-06T01:37:26.349Z,4.30
2019-01-06T01:43:23.420Z,4.60
2019-01-06T01:49:17.832Z,4.87
2019-01-06T01:54:53.749Z,4.77
2019-01-06T02:00:34.758Z,4.77
2019-01-06T02:06:23.981Z,4.17
2019-01-06T02:12:04.522Z,4.57
2019-01-06T02:17:55.766Z,4.30
2019-01-06T02:23:53.337Z,4.30
2019-01-06T02:29:41.631Z,4.23
2019-01-06T02:35:22.475Z,4.50
2019-01-06T02:41:17.544Z,4.60
2019-01-06T02:46:50.399Z,4.73
2019-01-06T02:52:30.896Z,4.73
2019-01-06T02:58:16.345Z,5.10
2019-01-06T03:03:47.978Z,4.53
2019-01-06T03:09:29.812Z,4.30
2019-01-06T03:15:07.762Z,4.63
2019-01-06T03:20:50.035Z,3.97
2019-01-06T03:26:30.181Z,4.23
2019-01-06T03:32:12.275Z,3.77
2019-01-06T03:38:03.293Z,3.40
2019-01-06T03:43:47.526Z,3.97
2019-01-06T03:49:29.495Z,3.90
2019-01-06T03:55:11.165Z,3.83
2019-01-06T04:01:01.537Z,4.20
2019-01-06T04:06:47.215Z,4.37
2019-01-06T04:12:38.871Z,5.17
2019-01-06T04:18:29.656Z,4.30
2019-01-06T04:24:18.021Z,3.87
2019-01-06T04:29:59.307Z,4.53
2019-01-06T04:35:40.017Z,4.47
2019-01-06T04:41:22.698Z,5.23
2019-01-06T04:47:02.499Z,4.87
2019-01-06T04:53:08.882Z,5.30
2019-01-06T04:59:09.364Z,6.10
2019-01-06T05:04:50.293Z,5.27
2019-01-06T05:10:50.277Z,4.73
2019-01-06T05:16:27.900Z,6.47
2019-01-06T05:22:08.945Z,6.07
2019-01-06T05:27:46.848Z,6.77
2019-01-06T05:33:27.714Z,7.20
2019-01-06T05:39:08.527Z,6.60
2019-01-06T05:44:51.018Z,6.50
2019-01-06T05:50:35.489Z,6.27
2019-01-06T05:56:17.110Z,7.80
2019-01-06T06:02:08.247Z,7.20
2019-01-06T06:07:56.527Z,6.73
2019-01-06T06:13:41.349Z,7.23
2019-01-06T06:19:17.845Z,6.57
2019-01-06T06:24:59.036Z,6.90
2019-01-06T06:30:40.057Z,7.60
2019-01-06T06:36:20.970Z,7.87
2019-01-06T06:42:05.768Z,7.13
2019-01-06T06:47:50.398Z,6.93
2019-01-06T06:53:28.617Z,7.43
2019-01-06T06:59:03.881Z,7.90
2019-01-06T07:04:50.179Z,6.93
2019-01-06T07:10:41.842Z,7.73
2019-01-06T07:16:42.695Z,7.73
2019-01-06T07:22:29.240Z,8.03
2019-01-06T07:28:23.224Z,9.03
2019-01-06T07:34:20.585Z,8.47
2019-01-06T07:40:12.104Z,8.47
2019-01-06T07:45:53.376Z,7.10
2019-01-06T07:51:40.963Z,7.97
2019-01-06T07:57:22.233Z,9.63
2019-01-06T08:03:20.683Z,8.90
2019-01-06T08:09:01.618Z,8.93
2019-01-06T08:14:58.797Z,8.37
2019-01-06T08:20:39.474Z,7.53
2019-01-06T08:26:22.275Z,9.00
2019-01-06T08:32:05.438Z,8.77
2019-01-06T08:37:47.942Z,8.33
2019-01-06T08:43:28.109Z,9.20
2019-01-06T08:49:14.865Z,8.57
2019-01-06T08:55:00.245Z,8.00
2019-01-06T09:00:42.542Z,8.27
2019-01-06T09:06:33.860Z,8.37
2019-01-06T09:12:28.033Z,7.30
2019-01-06T09:18:10.333Z,8.20
2019-01-06T09:24:01.220Z,8.10
2019-01-06T09:29:46.462Z,6.80
2019-01-06T09:35:37.539Z,7.60
2019-01-06T09:41:18.698Z,7.13
2019-01-06T09:47:12.600Z,8.23
2019-01-06T09:53:00.646Z,7.33
2019-01-06T09:58:46.114Z,8.23
2019-01-06T10:04:35.149Z,7.93
2019-01-06T10:10:21.847Z,8.17
2019-01-06T10:16:03.174Z,7.83
2019-01-06T10:22:00.367Z,6.83
2019-01-06T10:27:42.537Z,7.60
2019-01-06T10:33:30.545Z,7.40
2019-01-06T10:39:03.641Z,6.63
2019-01-06T10:44:54.526Z,7.07
2019-01-06T10:50:34.317Z,6.50
2019-01-06T10:56:31.267Z,6.83
2019-01-06T11:02:31.767Z,7.20
2019-01-06T11:08:13.913Z,7.10
2019-01-06T11:14:01.924Z,8.53
2019-01-06T11:19:43.426Z,7.77
2019-01-06T11:25:22.914Z,8.13
2019-01-06T11:31:04.609Z,8.83
2019-01-06T11:36:52.665Z,10.07
2019-01-06T11:42:44.291Z,9.17
2019-01-06T11:48:25.130Z,8.50
2019-01-06T11:54:06.422Z,6.63
2019-01-06T11:59:48.046Z,8.37
2019-01-06T12:05:28.922Z,7.17
2019-01-06T12:11:11.361Z,7.40
2019-01-06T12:16:48.886Z,7.70
2019-01-06T12:22:30.087Z,6.77
2019-01-06T12:28:17.261Z,6.83
2019-01-06T12:33:53.856Z,6.40
2019-01-06T12:39:35.143Z,6.27
2019-01-06T12:45:26.013Z,6.07
2019-01-06T12:50:57.246Z,7.17
2019-01-06T12:56:54.754Z,7.03
2019-01-06T13:02:36.093Z,6.53
2019-01-06T13:08:33.215Z,6.30
2019-01-06T13:14:14.615Z,6.23
2019-01-06T13:19:55.519Z,6.30
2019-01-06T13:25:36.416Z,5.77
2019-01-06T13:31:18.742Z,6.03
2019-01-06T13:36:59.923Z,6.13
2019-01-06T13:42:40.906Z,7.30
2019-01-06T13:48:23.121Z,7.50
2019-01-06T13:54:20.510Z,6.23
2019-01-06T13:59:59.617Z,5.73
2019-01-06T14:05:57.412Z,6.33
2019-01-06T14:11:38.603Z,6.57
2019-01-06T14:17:26.866Z,6.47
2019-01-06T14:23:12.497Z,7.27
2019-01-06T14:28:54.123Z,6.23
2019-01-06T14:34:51.402Z,7.63
2019-01-06T14:40:48.420Z,7.70
2019-01-06T14:46:29.763Z,7.17
2019-01-06T14:52:21.066Z,7.33
2019-01-06T14:58:06.553Z,6.97
2019-01-06T15:03:47.371Z,7.53
2019-01-06T15:09:32.877Z,7.57
2019-01-06T15:15:18.126Z,6.43
2019-01-06T15:20:59.024Z,7.10
2019-01-06T15:26:39.967Z,7.43
2019-01-06T15:32:15.536Z,7.63
2019-01-06T15:38:06.793Z,6.73
2019-01-06T15:43:58.709Z,6.83
2019-01-06T15:49:41.025Z,5.60
2019-01-06T15:55:36.134Z,5.53
2019-01-06T16:01:17.036Z,5.17
2019-01-06T16:07:14.791Z,4.63
2019-01-06T16:13:00.197Z,5.83
2019-01-06T16:18:43.072Z,5.80
2019-01-06T16:24:31.727Z,5.47
2019-01-06T16:30:19.785Z,5.93
2019-01-06T16:36:02.200Z,4.83
2019-01-06T16:41:43.647Z,5.30
2019-01-06T16:47:29.546Z,5.67
2019-01-06T16:53:11.024Z,6.07
2019-01-06T16:58:59.255Z,6.20
2019-01-06T17:04:40.570Z,6.80
2019-01-06T17:10:21.619Z,5.93
2019-01-06T17:16:02.726Z,6.93
2019-01-06T17:22:03.092Z,7.17
2019-01-06T17:28:00.318Z,7.10
2019-01-06T17:33:41.279Z,6.90
2019-01-06T17:39:27.744Z,7.00
2019-01-06T17:45:12.858Z,7.30
2019-01-06T17:50:57.916Z,6.97
2019-01-06T17:56:38.723Z,7.20
2019-01-06T18:02:19.905Z,6.57
2019-01-06T18:08:08.248Z,8.17
2019-01-06T18:13:56.187Z,7.97
2019-01-06T18:19:38.652Z,8.40
2019-01-06T18:25:14.944Z,7.27
2019-01-06T18:31:02.895Z,8.40
2019-01-06T18:36:57.148Z,7.97
2019-01-06T18:42:38.235Z,8.40
2019-01-06T18:48:29.773Z,8.83
2019-01-06T18:54:10.931Z,8.83
2019-01-06T19:00:00.087Z,9.57
2019-01-06T19:05:48.443Z,9.13
2019-01-06T19:11:41.850Z,8.73
2019-01-06T19:17:40.823Z,7.63
2019-01-06T19:23:22.424Z,8.00
2019-01-06T19:29:06.497Z,8.47
2019-01-06T19:34:52.962Z,8.37
2019-01-06T19:40:30.889Z,7.23
2019-01-06T19:46:13.867Z,8.87
2019-01-06T19:51:59.191Z,9.03
2019-01-06T19:57:57.166Z,8.47
2019-01-06T20:03:40.518Z,8.40
2019-01-06T20:09:18.836Z,8.30
2019-01-06T20:15:15.442Z,9.37
2019-01-06T20:21:16.296Z,11.70
2019-01-06T20:26:50.708Z,9.93
2019-01-06T20:32:25.753Z,8.17
2019-01-06T20:38:11.079Z,8.93
2019-01-06T20:43:53.480Z,8.80
2019-01-06T20:49:36.755Z,10.13
2019-01-06T20:55:19.100Z,9.17
2019-01-06T21:00:59.985Z,10.47
2019-01-06T21:06:58.159Z,12.07
2019-01-06T21:12:39.202Z,12.23
2019-01-06T21:18:22.043Z,10.77
2019-01-06T21:24:03.871Z,10.30
2019-01-06T21:29:44.884Z,10.83
2019-01-06T21:35:39.063Z,9.83
2019-01-06T21:41:20.909Z,11.20
2019-01-06T21:47:02.182Z,10.57
2019-01-06T21:52:47.533Z,11.10
2019-01-06T21:58:47.998Z,12.00
2019-01-06T22:04:29.048Z,11.43
2019-01-06T22:10:21.961Z,11.73
2019-01-06T22:16:07.131Z,11.70
2019-01-06T22:21:48.818Z,11.30
2019-01-06T22:27:31.146Z,12.00
2019-01-06T22:33:13.318Z,12.20
2019-01-06T22:39:10.734Z,12.70
2019-01-06T22:45:05.429Z,12.53
2019-01-06T22:50:59.438Z,11.77
2019-01-06T22:56:40.431Z,12.77
2019-01-06T23:02:21.522Z,12.00
2019-01-06T23:08:04.282Z,10.60
2019-01-06T23:13:59.014Z,11.67
2019-01-06T23:20:02.660Z,11.50
2019-01-06T23:25:22.119Z,11.77
2019-01-06T23:31:19.786Z,11.37
2019-01-06T23:36:58.901Z,11.33
2019-01-06T23:42:41.629Z,12.30
2019-01-06T23:48:22.950Z,11.43
2019-01-06T23:54:13.934Z,10.77
2019-01-06T23:59:56.031Z,10.63
